Bruna Cristina — CUBN9 — position and weather

sailwx.info

Track history (hours):
 
Tides and Currents Weather Stations Pressure Air Temp Water Temp Dewpoint Dewpoint Depression Visibility Wind Speed Wind Dir Waves Ship Positions

Bruna Cristina

Last reported at 2018-Apr-18 17:26 UTC. Time now 2018-Apr-24 23:06 UTC.
Position N 41°13' W 008°47'.

Length 17 m.

Type: Fishing. MMSI: 263282000.

Date/timePositionNaut miles runAvg speedWind from/ knotsBaromVisibWave heightAir tempDewpointWater temp
2018-Apr-18 17:26N 41°13' W 008°47'3 7.4
2018-Apr-18 17:00N 41°11' W 008°44'1 2.4
2018-Apr-18 16:30N 41°11' W 008°42'0 0.0
2018-Apr-18 15:50N 41°11' W 008°42'0 0.0
2018-Apr-18 15:30N 41°11' W 008°42'1 2.5
2018-Apr-18 15:00N 41°10' W 008°43'3 0.1
2018-Apr-17 18:31N 41°11' W 008°47'0 7.3
2018-Apr-17 18:30N 41°11' W 008°47'4 7.2
2018-Apr-17 18:00N 41°10' W 008°43'1 1.9
2018-Apr-17 17:30N 41°11' W 008°42'0 0.0
2018-Apr-17 17:00N 41°11' W 008°42'0 0.0
2018-Apr-17 16:30N 41°11' W 008°42'0 0.0
2018-Apr-17 16:00N 41°11' W 008°42'0 0.0
2018-Apr-17 15:30N 41°11' W 008°42'0 0.3
2018-Apr-17 15:00N 41°11' W 008°42'2 3.7
2018-Apr-17 14:30N 41°11' W 008°44'3 0.1
2018-Apr-15 20:31N 41°13' W 008°47'1 7.3
2018-Apr-15 20:27N 41°12' W 008°46'3 6.9
2018-Apr-15 20:00N 41°10' W 008°43'1 2.0
2018-Apr-15 19:30N 41°11' W 008°42'  
2018-Apr-13 13:53N 41°11' W 008°42'0 0.0
2018-Apr-13 13:29N 41°11' W 008°42'0 0.0
2018-Apr-13 13:00N 41°11' W 008°42'0 0.0
2018-Apr-13 12:30N 41°11' W 008°42'0 0.3
2018-Apr-13 12:00N 41°11' W 008°42'3 5.6
2018-Apr-13 11:30N 41°12' W 008°46'2 0.0
2018-Apr-11 08:29N 41°13' W 008°47'3 7.0
2018-Apr-11 08:00N 41°11' W 008°44'2 3.3
2018-Apr-11 07:30N 41°11' W 008°42'0 0.0
2018-Apr-09 14:55N 41°11' W 008°42'0 0.0
2018-Apr-09 13:28N 41°11' W 008°42'0 0.0
2018-Apr-09 13:00N 41°11' W 008°42'0 0.0
2018-Apr-09 12:30N 41°11' W 008°42'0 0.0
2018-Apr-09 12:00N 41°11' W 008°42'0 0.2
2018-Apr-09 11:30N 41°11' W 008°42'3 5.0
2018-Apr-09 10:58N 41°11' W 008°45'2 0.2
2018-Apr-09 01:55N 41°13' W 008°47'2 4.7
2018-Apr-09 01:30N 41°11' W 008°46'3 5.4
2018-Apr-09 01:00N 41°10' W 008°42'1 1.4
2018-Apr-09 00:30N 41°11' W 008°42'0 0.0
2018-Apr-09 00:00N 41°11' W 008°42'0 0.0
2018-Apr-08 23:30N 41°11' W 008°42'0 0.0
2018-Apr-08 23:00N 41°11' W 008°42'0 0.0
2018-Apr-08 22:30N 41°11' W 008°42'0 0.0
2018-Apr-08 22:00N 41°11' W 008°42'0 0.0
2018-Apr-08 21:30N 41°11' W 008°42'  
Track history (hours):
 
Tides and Currents Weather Stations Pressure Air Temp Water Temp Dewpoint Dewpoint Depression Visibility Wind Speed Wind Dir Waves Ship Positions

Bruna Cristina

Last reported at 2018-Apr-18 17:26 UTC. Time now 2018-Apr-24 23:06 UTC.
Position N 41°13' W 008°47'.

Length 17 m.

Type: Fishing. MMSI: 263282000.

Date/timePositionNaut miles runAvg speedWind from/ knotsBaromVisibWave heightAir tempDewpointWater temp
2018-Apr-18 17:26N 41°13' W 008°47'3 7.4
2018-Apr-18 17:00N 41°11' W 008°44'1 2.4
2018-Apr-18 16:30N 41°11' W 008°42'0 0.0
2018-Apr-18 15:50N 41°11' W 008°42'0 0.0
2018-Apr-18 15:30N 41°11' W 008°42'1 2.5
2018-Apr-18 15:00N 41°10' W 008°43'3 0.1
2018-Apr-17 18:31N 41°11' W 008°47'0 7.3
2018-Apr-17 18:30N 41°11' W 008°47'4 7.2
2018-Apr-17 18:00N 41°10' W 008°43'1 1.9
2018-Apr-17 17:30N 41°11' W 008°42'0 0.0
2018-Apr-17 17:00N 41°11' W 008°42'0 0.0
2018-Apr-17 16:30N 41°11' W 008°42'0 0.0
2018-Apr-17 16:00N 41°11' W 008°42'0 0.0
2018-Apr-17 15:30N 41°11' W 008°42'0 0.3
2018-Apr-17 15:00N 41°11' W 008°42'2 3.7
2018-Apr-17 14:30N 41°11' W 008°44'3 0.1
2018-Apr-15 20:31N 41°13' W 008°47'1 7.3
2018-Apr-15 20:27N 41°12' W 008°46'3 6.9
2018-Apr-15 20:00N 41°10' W 008°43'1 2.0
2018-Apr-15 19:30N 41°11' W 008°42'  
2018-Apr-13 13:53N 41°11' W 008°42'0 0.0
2018-Apr-13 13:29N 41°11' W 008°42'0 0.0
2018-Apr-13 13:00N 41°11' W 008°42'0 0.0
2018-Apr-13 12:30N 41°11' W 008°42'0 0.3
2018-Apr-13 12:00N 41°11' W 008°42'3 5.6
2018-Apr-13 11:30N 41°12' W 008°46'2 0.0
2018-Apr-11 08:29N 41°13' W 008°47'3 7.0
2018-Apr-11 08:00N 41°11' W 008°44'2 3.3
2018-Apr-11 07:30N 41°11' W 008°42'0 0.0
2018-Apr-09 14:55N 41°11' W 008°42'0 0.0
2018-Apr-09 13:28N 41°11' W 008°42'0 0.0
2018-Apr-09 13:00N 41°11' W 008°42'0 0.0
2018-Apr-09 12:30N 41°11' W 008°42'0 0.0
2018-Apr-09 12:00N 41°11' W 008°42'0 0.2
2018-Apr-09 11:30N 41°11' W 008°42'3 5.0
2018-Apr-09 10:58N 41°11' W 008°45'2 0.2
2018-Apr-09 01:55N 41°13' W 008°47'2 4.7
2018-Apr-09 01:30N 41°11' W 008°46'3 5.4
2018-Apr-09 01:00N 41°10' W 008°42'1 1.4
2018-Apr-09 00:30N 41°11' W 008°42'0 0.0
2018-Apr-09 00:00N 41°11' W 008°42'0 0.0
2018-Apr-08 23:30N 41°11' W 008°42'0 0.0
2018-Apr-08 23:00N 41°11' W 008°42'0 0.0
2018-Apr-08 22:30N 41°11' W 008°42'0 0.0
2018-Apr-08 22:00N 41°11' W 008°42'0 0.0
2018-Apr-08 21:30N 41°11' W 008°42'  

Dump ship's entire track history